createdAt,value
2019-03-09T00:01:17.780Z,6.10
2019-03-09T00:03:46.891Z,5.90
2019-03-09T00:06:16.823Z,6.10
2019-03-09T00:08:46.221Z,6.00
2019-03-09T00:11:15.495Z,6.00
2019-03-09T00:13:44.457Z,6.00
2019-03-09T00:16:15.077Z,5.90
2019-03-09T00:18:44.139Z,6.00
2019-03-09T00:21:13.247Z,6.00
2019-03-09T00:23:59.862Z,6.00
2019-03-09T00:26:54.092Z,6.00
2019-03-09T00:29:31.229Z,6.10
2019-03-09T00:32:04.207Z,6.10
2019-03-09T00:34:33.269Z,6.20
2019-03-09T00:37:02.323Z,5.90
2019-03-09T00:39:31.305Z,6.20
2019-03-09T00:42:00.407Z,6.00
2019-03-09T00:44:30.808Z,6.10
2019-03-09T00:46:59.872Z,6.10
2019-03-09T00:49:29.270Z,6.20
2019-03-09T00:51:58.231Z,6.10
2019-03-09T00:54:27.259Z,6.00
2019-03-09T00:56:56.242Z,6.10
2019-03-09T00:59:25.245Z,6.10
2019-03-09T01:01:54.200Z,6.20
2019-03-09T01:04:23.079Z,6.80
2019-03-09T01:06:51.997Z,6.30
2019-03-09T01:09:20.836Z,6.30
2019-03-09T01:11:49.687Z,6.50
2019-03-09T01:14:18.548Z,6.50
2019-03-09T01:16:47.468Z,6.40
2019-03-09T01:19:16.323Z,6.70
2019-03-09T01:21:45.161Z,6.60
2019-03-09T01:24:14.035Z,6.40
2019-03-09T01:26:42.876Z,6.40
2019-03-09T01:29:11.849Z,6.40
2019-03-09T01:31:40.749Z,6.40
2019-03-09T01:34:09.671Z,6.40
2019-03-09T01:36:38.621Z,6.30
2019-03-09T01:39:07.614Z,6.40
2019-03-09T01:41:36.550Z,6.60
2019-03-09T01:44:06.097Z,6.50
2019-03-09T01:46:35.059Z,6.50
2019-03-09T01:49:03.994Z,6.30
2019-03-09T01:51:33.088Z,6.30
2019-03-09T01:54:01.999Z,6.30
2019-03-09T01:56:31.391Z,6.30
2019-03-09T01:59:00.422Z,6.30
2019-03-09T02:01:29.508Z,6.40
2019-03-09T02:03:58.464Z,6.30
2019-03-09T02:06:28.390Z,6.30
2019-03-09T02:08:57.321Z,6.20
2019-03-09T02:11:26.293Z,6.20
2019-03-09T02:13:55.214Z,6.30
2019-03-09T02:16:24.279Z,6.00
2019-03-09T02:18:53.321Z,6.00
2019-03-09T02:21:22.296Z,6.00
2019-03-09T02:23:51.197Z,6.10
2019-03-09T02:26:20.248Z,6.10
2019-03-09T02:28:49.158Z,6.10
2019-03-09T02:31:18.011Z,6.00
2019-03-09T02:33:47.053Z,5.90
2019-03-09T02:36:16.073Z,5.80
2019-03-09T02:38:56.257Z,5.80
2019-03-09T02:41:25.207Z,5.70
2019-03-09T02:43:54.235Z,5.70
2019-03-09T02:46:23.317Z,5.60
2019-03-09T02:48:52.396Z,5.60
2019-03-09T02:51:21.761Z,5.50
2019-03-09T02:53:50.731Z,5.40
2019-03-09T02:56:19.688Z,5.30
2019-03-09T02:58:48.697Z,5.30
2019-03-09T03:01:39.784Z,5.20
2019-03-09T03:04:08.966Z,5.20
2019-03-09T03:06:37.948Z,5.50
2019-03-09T03:09:07.002Z,5.10
2019-03-09T03:11:37.346Z,5.10
2019-03-09T03:14:07.245Z,5.00
2019-03-09T03:16:36.246Z,5.00
2019-03-09T03:19:07.327Z,5.00
2019-03-09T03:21:36.412Z,5.00
2019-03-09T03:24:05.321Z,5.00
2019-03-09T03:26:34.515Z,5.00
2019-03-09T03:29:04.381Z,5.00
2019-03-09T03:31:33.376Z,5.00
2019-03-09T03:34:02.262Z,4.90
2019-03-09T03:36:31.281Z,5.00
2019-03-09T03:39:00.182Z,5.00
2019-03-09T03:41:29.072Z,5.00
2019-03-09T03:43:57.893Z,5.00
2019-03-09T03:46:26.809Z,5.00
2019-03-09T03:48:55.718Z,5.00
2019-03-09T03:51:24.566Z,5.00
2019-03-09T03:53:53.446Z,4.90
2019-03-09T03:56:22.466Z,4.90
2019-03-09T03:58:51.396Z,4.90
2019-03-09T04:01:20.263Z,4.90
2019-03-09T04:03:49.290Z,5.00
2019-03-09T04:06:18.387Z,5.00
2019-03-09T04:08:47.672Z,4.80
2019-03-09T04:11:16.602Z,5.00
2019-03-09T04:13:45.706Z,4.90
2019-03-09T04:16:14.747Z,4.80
2019-03-09T04:18:43.736Z,4.90
2019-03-09T04:21:12.673Z,5.00
2019-03-09T04:23:41.695Z,5.00
2019-03-09T04:26:11.022Z,5.10
2019-03-09T04:28:40.062Z,5.20
2019-03-09T04:31:09.164Z,5.10
2019-03-09T04:33:38.271Z,5.20
2019-03-09T04:36:07.416Z,5.20
2019-03-09T04:38:36.436Z,5.10
2019-03-09T04:41:05.369Z,5.00
2019-03-09T04:43:34.413Z,5.20
2019-03-09T04:46:03.317Z,5.20
2019-03-09T04:48:32.289Z,5.20
2019-03-09T04:51:01.167Z,5.20
2019-03-09T04:53:30.014Z,5.20
2019-03-09T04:55:58.997Z,5.20
2019-03-09T04:58:27.911Z,5.30
2019-03-09T05:00:56.942Z,5.30
2019-03-09T05:03:27.555Z,5.40
2019-03-09T05:05:56.702Z,5.40
2019-03-09T05:09:00.045Z,5.40
2019-03-09T05:11:31.368Z,5.40
2019-03-09T05:14:09.717Z,5.40
2019-03-09T05:16:38.744Z,5.50
2019-03-09T05:19:07.682Z,5.60
2019-03-09T05:21:36.552Z,5.50
2019-03-09T05:24:05.490Z,5.60
2019-03-09T05:26:34.423Z,5.60
2019-03-09T05:29:03.305Z,5.60
2019-03-09T05:31:32.190Z,5.60
2019-03-09T05:34:01.115Z,5.70
2019-03-09T05:36:30.101Z,5.70
2019-03-09T05:38:59.210Z,5.80
2019-03-09T05:41:28.231Z,5.80
2019-03-09T05:43:57.278Z,5.80
2019-03-09T05:46:26.345Z,5.90
2019-03-09T05:48:55.336Z,6.00
2019-03-09T05:51:24.423Z,5.90
2019-03-09T05:53:53.469Z,6.00
2019-03-09T05:56:22.625Z,5.90
2019-03-09T05:58:51.843Z,6.00
2019-03-09T06:01:20.932Z,6.10
2019-03-09T06:03:49.942Z,6.10
2019-03-09T06:06:19.566Z,6.10
2019-03-09T06:08:49.676Z,6.10
2019-03-09T06:11:18.715Z,6.00
2019-03-09T06:13:47.766Z,6.20
2019-03-09T06:16:16.761Z,6.20
2019-03-09T06:18:45.723Z,6.20
2019-03-09T06:21:14.708Z,6.20
2019-03-09T06:23:43.778Z,6.60
2019-03-09T06:26:12.684Z,6.40
2019-03-09T06:28:41.611Z,6.20
2019-03-09T06:31:10.560Z,6.20
2019-03-09T06:33:40.201Z,6.30
2019-03-09T06:36:36.523Z,6.40
2019-03-09T06:39:13.800Z,6.40
2019-03-09T06:41:53.481Z,6.50
2019-03-09T06:44:22.460Z,6.40
2019-03-09T06:46:51.368Z,6.60
2019-03-09T06:49:21.169Z,6.40
2019-03-09T06:51:50.096Z,6.50
2019-03-09T06:54:18.957Z,6.60
2019-03-09T06:56:47.985Z,6.60
2019-03-09T06:59:16.980Z,6.50
2019-03-09T07:01:45.914Z,6.70
2019-03-09T07:04:14.911Z,6.70
2019-03-09T07:06:43.828Z,6.80
2019-03-09T07:09:12.808Z,6.80
2019-03-09T07:11:42.215Z,6.90
2019-03-09T07:14:46.781Z,6.90
2019-03-09T07:17:15.730Z,7.00
2019-03-09T07:19:44.798Z,7.00
2019-03-09T07:22:13.753Z,7.10
2019-03-09T07:24:42.637Z,7.30
2019-03-09T07:27:11.615Z,7.20
2019-03-09T07:29:40.684Z,7.30
2019-03-09T07:32:09.529Z,7.30
2019-03-09T07:34:38.336Z,7.50
2019-03-09T07:37:07.660Z,7.50
2019-03-09T07:39:36.541Z,7.60
2019-03-09T07:42:05.633Z,7.80
2019-03-09T07:44:34.952Z,7.90
2019-03-09T07:47:04.051Z,7.90
2019-03-09T07:49:33.164Z,8.00
2019-03-09T07:52:02.416Z,8.10
2019-03-09T07:54:31.418Z,8.30
2019-03-09T07:57:00.264Z,8.30
2019-03-09T07:59:29.315Z,8.30
2019-03-09T08:01:58.294Z,8.30
2019-03-09T08:04:27.264Z,8.30
2019-03-09T08:06:57.308Z,8.40
2019-03-09T08:09:26.222Z,8.40
2019-03-09T08:11:55.129Z,8.50
2019-03-09T08:14:24.105Z,8.30
2019-03-09T08:16:53.129Z,8.50
2019-03-09T08:19:22.046Z,8.30
2019-03-09T08:21:50.980Z,8.20
2019-03-09T08:24:19.884Z,8.20
2019-03-09T08:26:48.843Z,8.20
2019-03-09T08:29:17.863Z,8.20
2019-03-09T08:31:46.843Z,8.20
2019-03-09T08:34:15.711Z,8.20
2019-03-09T08:36:44.746Z,8.10
2019-03-09T08:39:13.717Z,8.30
2019-03-09T08:41:42.589Z,8.20
2019-03-09T08:44:11.709Z,8.20
2019-03-09T08:46:40.760Z,8.50
2019-03-09T08:49:09.775Z,8.40
2019-03-09T08:51:38.764Z,8.40
2019-03-09T08:54:07.685Z,8.20
2019-03-09T08:56:36.669Z,8.30
2019-03-09T08:59:05.843Z,8.30
2019-03-09T09:01:34.890Z,8.30
2019-03-09T09:04:03.937Z,8.30
2019-03-09T09:06:32.830Z,8.30
2019-03-09T09:09:01.847Z,8.40
2019-03-09T09:11:30.945Z,8.40
2019-03-09T09:13:59.945Z,8.40
2019-03-09T09:16:29.080Z,8.50
2019-03-09T09:18:58.079Z,8.50
2019-03-09T09:21:27.143Z,8.50
2019-03-09T09:23:56.134Z,8.70
2019-03-09T09:26:25.155Z,8.80
2019-03-09T09:28:54.282Z,8.80
2019-03-09T09:31:23.479Z,8.90
2019-03-09T09:33:53.336Z,8.70
2019-03-09T09:36:22.632Z,8.90
2019-03-09T09:38:51.623Z,8.90
2019-03-09T09:41:20.548Z,8.90
2019-03-09T09:43:49.518Z,8.90
2019-03-09T09:46:18.507Z,9.00
2019-03-09T09:48:47.488Z,9.10
2019-03-09T09:51:16.473Z,9.10
2019-03-09T09:53:45.539Z,9.10
2019-03-09T09:56:14.553Z,9.10
2019-03-09T09:58:43.667Z,9.20
2019-03-09T10:01:12.746Z,9.30
2019-03-09T10:03:41.691Z,9.20
2019-03-09T10:06:10.642Z,9.20
2019-03-09T10:08:39.558Z,9.50
2019-03-09T10:11:08.717Z,9.40
2019-03-09T10:13:40.092Z,9.60
2019-03-09T10:16:09.152Z,9.60
2019-03-09T10:18:38.085Z,9.60
2019-03-09T10:21:06.962Z,9.60
2019-03-09T10:23:38.027Z,9.70
2019-03-09T10:26:06.853Z,9.60
2019-03-09T10:28:36.157Z,9.60
2019-03-09T10:31:05.316Z,9.70
2019-03-09T10:33:34.755Z,9.60
2019-03-09T10:36:03.975Z,9.50
2019-03-09T10:38:33.076Z,9.50
2019-03-09T10:41:02.614Z,9.30
2019-03-09T10:43:31.796Z,9.20
2019-03-09T10:46:01.274Z,9.10
2019-03-09T10:48:30.534Z,9.20
2019-03-09T10:50:59.524Z,9.20
2019-03-09T10:53:28.432Z,9.20
2019-03-09T10:55:58.589Z,9.50
2019-03-09T10:58:27.708Z,9.40
2019-03-09T11:00:57.344Z,9.60
2019-03-09T11:03:26.542Z,9.60
2019-03-09T11:05:56.077Z,9.70
2019-03-09T11:08:25.797Z,9.40
2019-03-09T11:10:55.301Z,9.30
2019-03-09T11:13:24.447Z,9.40
2019-03-09T11:15:53.904Z,9.20
2019-03-09T11:18:23.096Z,9.30
2019-03-09T11:20:52.139Z,9.40
2019-03-09T11:23:21.219Z,9.40
2019-03-09T11:25:50.422Z,9.50
2019-03-09T11:28:19.604Z,9.50
2019-03-09T11:30:48.989Z,9.60
2019-03-09T11:33:18.121Z,9.60
2019-03-09T11:35:47.263Z,9.60
2019-03-09T11:38:16.391Z,9.70
2019-03-09T11:40:45.551Z,9.80
2019-03-09T11:43:15.742Z,9.70
2019-03-09T11:45:45.013Z,9.60
2019-03-09T11:48:14.141Z,9.70
2019-03-09T11:50:43.379Z,9.60
2019-03-09T11:53:12.769Z,9.80
2019-03-09T11:55:41.924Z,9.90
2019-03-09T11:58:11.009Z,9.90
2019-03-09T12:00:40.546Z,9.90
2019-03-09T12:03:09.848Z,10.00
2019-03-09T12:05:39.040Z,10.00
2019-03-09T12:08:08.120Z,10.00
2019-03-09T12:10:37.293Z,9.90
2019-03-09T12:13:06.522Z,9.60
2019-03-09T12:15:35.597Z,9.70
2019-03-09T12:18:04.889Z,9.70
2019-03-09T12:20:34.107Z,9.70
2019-03-09T12:23:18.403Z,9.60
2019-03-09T12:25:48.287Z,9.60
2019-03-09T12:28:17.496Z,9.60
2019-03-09T12:30:47.193Z,9.70
2019-03-09T12:33:16.414Z,9.60
2019-03-09T12:35:45.514Z,9.70
2019-03-09T12:38:14.711Z,9.70
2019-03-09T12:40:44.249Z,9.70
2019-03-09T12:43:13.474Z,9.60
2019-03-09T12:48:22.321Z,9.50
2019-03-09T12:50:51.526Z,9.50
2019-03-09T12:53:20.853Z,9.50
2019-03-09T12:55:50.008Z,9.70
2019-03-09T12:58:19.229Z,10.00
2019-03-09T13:00:48.313Z,10.00
2019-03-09T13:03:17.459Z,9.80
2019-03-09T13:05:46.863Z,10.00
2019-03-09T13:08:16.098Z,10.10
2019-03-09T13:10:45.562Z,10.40
2019-03-09T13:13:14.743Z,10.80
2019-03-09T13:15:43.875Z,10.90
2019-03-09T13:18:13.193Z,10.50
2019-03-09T13:20:42.635Z,10.70
2019-03-09T13:23:12.164Z,11.00
2019-03-09T13:25:41.360Z,11.10
2019-03-09T13:28:10.519Z,11.50
2019-03-09T13:30:39.857Z,11.80
2019-03-09T13:33:08.860Z,12.30
2019-03-09T13:35:37.927Z,12.30
2019-03-09T13:38:07.016Z,11.70
2019-03-09T13:40:36.105Z,11.60
2019-03-09T13:43:05.174Z,12.00
2019-03-09T13:45:34.247Z,11.80
2019-03-09T13:48:03.405Z,11.60
2019-03-09T13:50:32.448Z,12.10
2019-03-09T13:53:01.496Z,11.70
2019-03-09T13:55:31.713Z,11.90
2019-03-09T13:58:00.787Z,11.80
2019-03-09T14:00:40.126Z,11.50
2019-03-09T14:03:03.294Z,11.70
2019-03-09T14:05:32.298Z,11.20
2019-03-09T14:08:01.363Z,10.90
2019-03-09T14:10:30.734Z,10.70
2019-03-09T14:12:59.767Z,10.50
2019-03-09T14:15:28.851Z,10.40
2019-03-09T14:17:57.897Z,10.30
2019-03-09T14:20:27.010Z,10.10
2019-03-09T14:22:56.205Z,10.00
2019-03-09T14:25:25.574Z,9.80
2019-03-09T14:27:54.749Z,9.70
2019-03-09T14:30:24.209Z,9.80
2019-03-09T14:32:53.772Z,9.80
2019-03-09T14:35:23.279Z,10.00
2019-03-09T14:37:52.724Z,10.00
2019-03-09T14:40:22.461Z,10.10
2019-03-09T14:42:51.608Z,10.60
2019-03-09T14:45:20.678Z,11.20
2019-03-09T14:47:49.972Z,11.10
2019-03-09T14:50:19.090Z,11.20
2019-03-09T14:52:48.216Z,11.20
2019-03-09T14:55:17.294Z,11.10
2019-03-09T14:57:46.506Z,10.80
2019-03-09T15:00:17.709Z,11.00
2019-03-09T15:02:46.945Z,10.60
2019-03-09T15:05:16.254Z,10.60
2019-03-09T15:07:45.423Z,10.60
2019-03-09T15:10:14.555Z,11.10
2019-03-09T15:12:43.576Z,11.10
2019-03-09T15:15:13.282Z,11.30
2019-03-09T15:17:42.590Z,10.90
2019-03-09T15:20:11.901Z,10.80
2019-03-09T15:22:41.293Z,10.50
2019-03-09T15:25:11.191Z,10.40
2019-03-09T15:27:40.847Z,10.30
2019-03-09T15:30:12.369Z,10.40
2019-03-09T15:32:41.616Z,10.30
2019-03-09T15:35:12.120Z,10.20
2019-03-09T15:37:41.463Z,10.60
2019-03-09T15:40:10.714Z,10.60
2019-03-09T15:42:40.411Z,10.30
2019-03-09T15:45:10.356Z,10.30
2019-03-09T15:47:40.845Z,10.30
2019-03-09T15:50:13.551Z,10.20
2019-03-09T15:52:42.884Z,10.30
2019-03-09T15:55:12.465Z,10.20
2019-03-09T15:57:41.789Z,10.20
2019-03-09T16:00:14.214Z,10.10
2019-03-09T16:02:43.376Z,10.00
2019-03-09T16:05:12.537Z,10.00
2019-03-09T16:07:41.666Z,10.00
2019-03-09T16:10:12.239Z,9.90
2019-03-09T16:12:41.681Z,9.90
2019-03-09T16:15:11.546Z,9.90
2019-03-09T16:17:40.921Z,9.80
2019-03-09T16:20:12.162Z,9.80
2019-03-09T16:22:42.499Z,9.90
2019-03-09T16:25:11.772Z,9.80
2019-03-09T16:27:40.913Z,9.80
2019-03-09T16:30:12.724Z,9.80
2019-03-09T16:32:41.888Z,9.70
2019-03-09T16:35:10.968Z,9.80
2019-03-09T16:37:40.130Z,9.70
2019-03-09T16:40:09.542Z,9.70
2019-03-09T16:42:38.691Z,9.70
2019-03-09T16:45:08.059Z,9.80
2019-03-09T16:47:37.195Z,9.80
2019-03-09T16:50:06.656Z,9.70
2019-03-09T16:52:35.648Z,9.60
2019-03-09T16:55:05.076Z,9.70
2019-03-09T16:57:34.528Z,9.60
2019-03-09T17:00:04.220Z,9.60
2019-03-09T17:02:33.518Z,9.80
2019-03-09T17:05:02.842Z,9.60
2019-03-09T17:07:32.093Z,9.40
2019-03-09T17:10:01.131Z,9.40
2019-03-09T17:12:30.327Z,9.30
2019-03-09T17:15:00.134Z,9.20
2019-03-09T17:17:34.122Z,9.20
2019-03-09T17:20:04.673Z,9.20
2019-03-09T17:22:33.735Z,9.10
2019-03-09T17:25:03.941Z,9.20
2019-03-09T17:27:33.006Z,9.20
2019-03-09T17:30:02.418Z,9.20
2019-03-09T17:32:33.158Z,9.10
2019-03-09T17:35:02.319Z,9.20
2019-03-09T17:37:31.405Z,9.20
2019-03-09T17:40:00.780Z,9.20
2019-03-09T17:42:29.933Z,9.20
2019-03-09T17:44:59.066Z,9.20
2019-03-09T17:47:28.643Z,9.10
2019-03-09T17:49:57.756Z,9.20
2019-03-09T17:52:26.785Z,9.10
2019-03-09T17:54:55.918Z,9.10
2019-03-09T17:57:25.032Z,9.10
2019-03-09T17:59:54.114Z,9.00
2019-03-09T18:02:23.198Z,9.00
2019-03-09T18:04:52.199Z,9.00
2019-03-09T18:07:21.449Z,8.90
2019-03-09T18:09:53.728Z,8.90
2019-03-09T18:12:23.063Z,9.00
2019-03-09T18:14:52.602Z,9.00
2019-03-09T18:17:24.004Z,9.00
2019-03-09T18:19:53.618Z,9.10
2019-03-09T18:22:22.966Z,9.10
2019-03-09T18:24:52.561Z,9.10
2019-03-09T18:27:22.315Z,8.80
2019-03-09T18:29:51.803Z,9.10
2019-03-09T18:32:21.436Z,9.10
2019-03-09T18:34:50.933Z,9.20
2019-03-09T18:37:22.034Z,9.10
2019-03-09T18:39:51.905Z,9.10
2019-03-09T18:42:21.548Z,9.10
2019-03-09T18:44:50.975Z,9.00
2019-03-09T18:47:22.927Z,8.90
2019-03-09T18:49:52.443Z,9.10
2019-03-09T18:52:21.986Z,9.00
2019-03-09T18:54:51.149Z,9.00
2019-03-09T18:57:20.429Z,9.00
2019-03-09T18:59:53.986Z,9.10
2019-03-09T19:02:23.227Z,9.00
2019-03-09T19:04:52.637Z,9.00
2019-03-09T19:07:24.160Z,9.00
2019-03-09T19:09:53.576Z,8.90
2019-03-09T19:12:22.583Z,9.00
2019-03-09T19:14:51.988Z,9.10
2019-03-09T19:17:21.052Z,9.00
2019-03-09T19:19:50.599Z,9.00
2019-03-09T19:22:19.843Z,9.00
2019-03-09T19:24:48.978Z,9.00
2019-03-09T19:27:18.395Z,7.80
2019-03-09T19:29:49.521Z,9.00
2019-03-09T19:32:18.752Z,9.10
2019-03-09T19:34:47.918Z,9.00
2019-03-09T19:37:16.967Z,9.00
2019-03-09T19:39:46.059Z,9.00
2019-03-09T19:42:15.199Z,9.00
2019-03-09T19:44:44.264Z,8.50
2019-03-09T19:47:14.538Z,9.00
2019-03-09T19:49:43.721Z,9.00
2019-03-09T19:52:12.830Z,9.00
2019-03-09T19:54:42.252Z,9.00
2019-03-09T19:57:13.527Z,8.90
2019-03-09T19:59:42.591Z,8.70
2019-03-09T20:02:11.630Z,8.80
2019-03-09T20:04:40.775Z,8.80
2019-03-09T20:07:09.910Z,8.80
2019-03-09T20:09:40.446Z,8.80
2019-03-09T20:12:10.026Z,8.80
2019-03-09T20:14:39.197Z,8.80
2019-03-09T20:17:08.385Z,8.80
2019-03-09T20:19:37.465Z,8.90
2019-03-09T20:22:07.123Z,8.80
2019-03-09T20:24:36.447Z,8.70
2019-03-09T20:27:05.496Z,8.70
2019-03-09T20:29:34.682Z,8.70
2019-03-09T20:32:03.714Z,8.70
2019-03-09T20:34:32.818Z,8.70
2019-03-09T20:37:01.969Z,8.80
2019-03-09T20:39:31.255Z,8.70
2019-03-09T20:42:00.361Z,8.80
2019-03-09T20:44:29.509Z,8.70
2019-03-09T20:46:58.678Z,8.70
2019-03-09T20:49:27.856Z,8.70
2019-03-09T20:51:57.055Z,8.70
2019-03-09T20:54:26.231Z,8.60
2019-03-09T20:56:55.378Z,8.60
2019-03-09T20:59:24.550Z,8.60
2019-03-09T21:01:53.795Z,8.60
2019-03-09T21:04:22.944Z,8.60
2019-03-09T21:06:52.159Z,8.60
2019-03-09T21:09:21.224Z,8.60
2019-03-09T21:11:51.200Z,8.60
2019-03-09T21:14:21.309Z,8.60
2019-03-09T21:16:50.552Z,8.70
2019-03-09T21:19:19.856Z,8.60
2019-03-09T21:21:49.107Z,8.60
2019-03-09T21:24:18.405Z,8.60
2019-03-09T21:26:47.794Z,8.60
2019-03-09T21:29:17.233Z,8.60
2019-03-09T21:31:46.413Z,8.60
2019-03-09T21:34:15.609Z,8.50
2019-03-09T21:36:44.740Z,8.50
2019-03-09T21:39:14.058Z,8.60
2019-03-09T21:41:43.525Z,8.50
2019-03-09T21:44:14.606Z,8.60
2019-03-09T21:46:43.818Z,8.50
2019-03-09T21:49:13.002Z,8.60
2019-03-09T21:51:42.290Z,8.50
2019-03-09T21:54:11.610Z,8.50
2019-03-09T21:56:40.873Z,8.60
2019-03-09T21:59:10.271Z,8.60
2019-03-09T22:01:39.608Z,8.50
2019-03-09T22:04:10.102Z,8.60
2019-03-09T22:06:39.289Z,8.50
2019-03-09T22:09:11.682Z,8.60
2019-03-09T22:11:40.942Z,8.50
2019-03-09T22:14:11.594Z,8.50
2019-03-09T22:16:43.731Z,8.50
2019-03-09T22:19:12.849Z,8.50
2019-03-09T22:21:42.007Z,8.50
2019-03-09T22:24:13.271Z,8.50
2019-03-09T22:26:42.642Z,8.50
2019-03-09T22:29:12.132Z,8.40
2019-03-09T22:31:41.440Z,8.40
2019-03-09T22:34:10.600Z,8.40
2019-03-09T22:36:39.700Z,8.30
2019-03-09T22:39:08.777Z,8.30
2019-03-09T22:41:37.878Z,8.50
2019-03-09T22:44:06.907Z,8.30
2019-03-09T22:46:36.068Z,8.30
2019-03-09T22:49:05.055Z,8.30
2019-03-09T22:51:34.201Z,8.30
2019-03-09T22:54:03.386Z,8.30
2019-03-09T22:56:32.477Z,8.30
2019-03-09T22:59:01.657Z,8.30
2019-03-09T23:01:30.760Z,8.30
2019-03-09T23:03:59.735Z,8.30
2019-03-09T23:06:28.758Z,8.20
2019-03-09T23:08:57.876Z,8.20
2019-03-09T23:11:26.996Z,8.30
2019-03-09T23:13:56.060Z,8.20
2019-03-09T23:16:25.083Z,8.40
2019-03-09T23:18:54.180Z,8.20
2019-03-09T23:21:23.270Z,8.30
2019-03-09T23:23:52.261Z,8.20
2019-03-09T23:26:21.409Z,8.10
2019-03-09T23:28:50.560Z,8.10
2019-03-09T23:31:19.704Z,8.10
2019-03-09T23:33:48.905Z,8.10
2019-03-09T23:36:18.024Z,8.10
2019-03-09T23:38:47.405Z,8.10
2019-03-09T23:41:16.459Z,8.10
2019-03-09T23:43:45.576Z,8.10
2019-03-09T23:46:14.689Z,8.10
2019-03-09T23:48:43.898Z,8.10
2019-03-09T23:51:13.014Z,8.10
2019-03-09T23:53:42.200Z,8.10
2019-03-09T23:56:13.586Z,8.20
2019-03-09T23:58:42.185Z,8.10
